createdAt,value
2022-12-23T00:00:34.627Z,78.97
2022-12-23T00:01:36.508Z,82.43
2022-12-23T00:02:38.679Z,75.28
2022-12-23T00:03:40.812Z,84.20
2022-12-23T00:04:42.574Z,75.38
2022-12-23T00:05:44.573Z,84.00
2022-12-23T00:06:46.249Z,81.28
2022-12-23T00:07:47.910Z,81.70
2022-12-23T00:08:49.680Z,78.30
2022-12-23T00:09:51.463Z,75.97
2022-12-23T00:10:55.834Z,79.40
2022-12-23T00:11:57.487Z,75.50
2022-12-23T00:12:59.180Z,77.50
2022-12-23T00:14:00.861Z,75.15
2022-12-23T00:15:02.563Z,75.00
2022-12-23T00:16:06.161Z,73.07
2022-12-23T00:17:21.530Z,84.38
2022-12-23T00:18:24.591Z,87.93
2022-12-23T00:19:26.329Z,83.95
2022-12-23T00:20:28.053Z,84.95
2022-12-23T00:21:29.983Z,73.65
2022-12-23T00:22:31.987Z,78.80
2022-12-23T00:23:35.420Z,73.30
2022-12-23T00:24:37.092Z,68.47
2022-12-23T00:25:42.187Z,79.22
2022-12-23T00:26:44.162Z,67.03
2022-12-23T00:27:47.968Z,70.03
2022-12-23T00:28:50.558Z,82.88
2022-12-23T00:29:52.226Z,78.78
2022-12-23T00:31:05.627Z,70.63
2022-12-23T00:32:07.488Z,67.40
2022-12-23T00:33:09.208Z,67.43
2022-12-23T00:34:11.723Z,70.63
2022-12-23T00:35:13.413Z,66.22
2022-12-23T00:36:35.410Z,66.03
2022-12-23T00:37:37.132Z,63.75
2022-12-23T00:38:39.052Z,65.57
2022-12-23T00:39:40.729Z,63.60
2022-12-23T00:40:42.792Z,66.03
2022-12-23T00:41:45.095Z,62.50
2022-12-23T00:42:46.923Z,68.63
2022-12-23T00:43:48.691Z,62.87
2022-12-23T00:44:50.459Z,61.05
2022-12-23T00:45:52.302Z,58.90
2022-12-23T00:46:54.311Z,50.10
2022-12-23T00:47:56.020Z,56.25
2022-12-23T00:48:57.960Z,58.58
2022-12-23T00:49:59.609Z,60.42
2022-12-23T00:51:01.285Z,56.92
2022-12-23T00:52:05.412Z,59.97
2022-12-23T00:53:07.164Z,69.25
2022-12-23T00:54:08.918Z,67.47
2022-12-23T00:55:10.579Z,71.75
2022-12-23T00:56:12.222Z,69.35
2022-12-23T00:57:13.971Z,75.00
2022-12-23T00:58:16.792Z,77.53
2022-12-23T00:59:18.536Z,76.35
2022-12-23T01:00:20.817Z,72.53
2022-12-23T01:01:22.666Z,77.40
2022-12-23T01:02:24.588Z,74.32
2022-12-23T01:03:26.436Z,73.97
2022-12-23T01:04:28.302Z,84.23
2022-12-23T01:05:30.084Z,82.63
2022-12-23T01:06:31.815Z,77.03
2022-12-23T01:07:33.547Z,76.28
2022-12-23T01:08:35.356Z,81.20
2022-12-23T01:09:37.129Z,79.88
2022-12-23T01:10:40.589Z,86.25
2022-12-23T01:11:42.794Z,92.40
2022-12-23T01:12:44.469Z,90.22
2022-12-23T01:13:46.137Z,79.28
2022-12-23T01:14:48.388Z,93.20
2022-12-23T01:15:50.023Z,83.82
2022-12-23T01:16:51.774Z,89.15
2022-12-23T01:17:53.533Z,77.38
2022-12-23T01:18:55.266Z,81.07
2022-12-23T01:19:57.019Z,78.03
2022-12-23T01:21:05.533Z,80.68
2022-12-23T01:22:07.216Z,81.32
2022-12-23T01:23:08.878Z,78.20
2022-12-23T01:24:10.582Z,73.78
2022-12-23T01:25:12.386Z,81.83
2022-12-23T01:26:14.074Z,81.72
2022-12-23T01:27:15.848Z,78.28
2022-12-23T01:28:17.535Z,76.07
2022-12-23T01:29:19.243Z,82.03
2022-12-23T01:30:21.054Z,81.25
2022-12-23T01:31:23.864Z,84.65
2022-12-23T01:32:25.609Z,83.65
2022-12-23T01:33:27.609Z,73.53
2022-12-23T01:34:36.023Z,84.28
2022-12-23T01:35:38.368Z,87.27
2022-12-23T01:36:40.018Z,103.70
2022-12-23T01:37:41.850Z,92.72
2022-12-23T01:38:43.599Z,95.78
2022-12-23T01:39:45.369Z,111.10
2022-12-23T01:40:47.160Z,97.32
2022-12-23T01:41:48.890Z,107.40
2022-12-23T01:42:50.676Z,104.13
2022-12-23T01:43:52.593Z,102.45
2022-12-23T01:45:41.216Z,98.85
2022-12-23T01:46:43.120Z,93.60
2022-12-23T01:47:57.860Z,100.20
2022-12-23T01:48:59.579Z,87.97
2022-12-23T01:50:16.889Z,88.68
2022-12-23T01:51:36.632Z,90.57
2022-12-23T01:52:44.600Z,81.68
2022-12-23T01:53:52.420Z,82.63
2022-12-23T01:54:55.303Z,76.70
2022-12-23T01:56:17.129Z,82.70
2022-12-23T01:57:18.851Z,75.63
2022-12-23T01:58:30.622Z,81.37
2022-12-23T01:59:32.776Z,79.03
2022-12-23T02:00:35.434Z,78.30
2022-12-23T02:01:37.361Z,87.28
2022-12-23T02:02:42.594Z,84.88
2022-12-23T02:03:46.222Z,81.22
2022-12-23T02:04:50.010Z,76.10
2022-12-23T02:05:53.242Z,76.40
2022-12-23T02:06:55.207Z,71.78
2022-12-23T02:07:57.195Z,63.88
2022-12-23T02:08:58.914Z,64.13
2022-12-23T02:10:00.828Z,57.97
2022-12-23T02:11:39.022Z,69.45
2022-12-23T02:13:05.480Z,61.90
2022-12-23T02:14:31.730Z,65.57
2022-12-23T02:15:50.621Z,60.35
2022-12-23T02:17:09.289Z,62.58
2022-12-23T02:18:22.811Z,72.30
2022-12-23T02:19:56.892Z,70.90
2022-12-23T02:21:29.494Z,73.32
2022-12-23T02:22:52.297Z,60.03
2022-12-23T02:24:03.244Z,72.15
2022-12-23T02:25:23.472Z,67.40
2022-12-23T02:26:52.522Z,63.05
2022-12-23T02:28:15.395Z,81.18
2022-12-23T02:29:58.847Z,75.10
2022-12-23T02:31:21.956Z,77.53
2022-12-23T02:32:36.759Z,90.43
2022-12-23T02:34:02.632Z,85.57
2022-12-23T02:35:18.551Z,84.53
2022-12-23T02:36:30.827Z,85.33
2022-12-23T02:37:35.580Z,97.80
2022-12-23T02:38:56.886Z,101.68
2022-12-23T02:40:02.869Z,108.20
2022-12-23T02:41:07.623Z,101.25
2022-12-23T02:44:35.917Z,89.43
2022-12-23T02:45:54.728Z,96.00
2022-12-23T02:47:29.461Z,98.35
2022-12-23T02:48:34.010Z,96.80
2022-12-23T02:49:40.841Z,96.00
2022-12-23T02:50:46.101Z,101.55
2022-12-23T02:51:52.666Z,98.32
2022-12-23T02:52:58.750Z,108.35
2022-12-23T02:54:06.058Z,105.22
2022-12-23T02:55:16.806Z,98.50
2022-12-23T02:56:20.522Z,96.68
2022-12-23T02:57:36.784Z,98.10
2022-12-23T02:58:47.513Z,97.88
2022-12-23T02:59:52.197Z,99.95
2022-12-23T03:00:55.569Z,99.30
2022-12-23T03:01:58.610Z,100.05
2022-12-23T03:03:00.492Z,100.88
2022-12-23T03:04:02.605Z,102.50
2022-12-23T03:05:04.725Z,101.18
2022-12-23T03:06:21.050Z,100.25
2022-12-23T03:07:39.097Z,102.28
2022-12-23T03:08:43.911Z,103.53
2022-12-23T03:10:13.776Z,94.65
2022-12-23T03:11:17.463Z,92.93
2022-12-23T03:12:31.266Z,105.90
2022-12-23T03:13:38.589Z,94.30
2022-12-23T03:14:49.101Z,95.13
2022-12-23T03:16:21.685Z,90.20
2022-12-23T03:17:35.176Z,92.60
2022-12-23T03:18:57.456Z,100.32
2022-12-23T03:20:07.905Z,103.65
2022-12-23T03:21:17.561Z,111.07
2022-12-23T03:22:35.793Z,117.95
2022-12-23T03:24:03.879Z,114.95
2022-12-23T03:25:27.027Z,125.10
2022-12-23T03:26:51.112Z,118.43
2022-12-23T03:27:55.416Z,78.53
2022-12-23T03:29:03.838Z,93.00
2022-12-23T03:30:09.195Z,97.65
2022-12-23T03:31:17.304Z,94.32
2022-12-23T03:32:22.354Z,115.35
2022-12-23T03:33:37.344Z,100.03
2022-12-23T03:34:43.296Z,94.53
2022-12-23T03:35:55.655Z,89.45
2022-12-23T03:37:01.149Z,90.80
2022-12-23T03:38:04.192Z,90.00
2022-12-23T03:39:09.812Z,89.57
2022-12-23T03:40:28.267Z,84.10
2022-12-23T03:41:42.669Z,90.32
2022-12-23T03:42:48.523Z,86.28
2022-12-23T03:43:56.585Z,83.55
2022-12-23T03:45:36.943Z,84.25
2022-12-23T03:46:31.063Z,88.38
2022-12-23T03:47:39.364Z,86.75
2022-12-23T03:48:47.717Z,74.77
2022-12-23T03:49:55.661Z,84.30
2022-12-23T03:51:03.099Z,91.93
2022-12-23T03:52:22.033Z,90.55
2022-12-23T03:53:31.158Z,86.72
2022-12-23T03:54:40.613Z,81.85
2022-12-23T03:55:52.162Z,84.75
2022-12-23T03:57:13.623Z,86.82
2022-12-23T03:58:45.822Z,86.38
2022-12-23T03:59:49.881Z,79.63
2022-12-23T04:01:04.921Z,78.23
2022-12-23T04:02:33.131Z,83.07
2022-12-23T04:04:03.864Z,79.28
2022-12-23T04:05:27.655Z,74.20
2022-12-23T04:06:38.435Z,87.05
2022-12-23T04:07:54.816Z,93.70
2022-12-23T04:08:57.418Z,83.57
2022-12-23T04:10:00.244Z,80.63
2022-12-23T04:11:02.964Z,91.07
2022-12-23T04:12:05.326Z,90.38
2022-12-23T04:13:07.693Z,96.00
2022-12-23T04:14:09.441Z,88.22
2022-12-23T04:15:13.268Z,96.15
2022-12-23T04:16:15.916Z,98.50
2022-12-23T04:17:18.936Z,99.95
2022-12-23T04:18:20.826Z,94.30
2022-12-23T04:19:22.646Z,89.88
2022-12-23T04:20:24.808Z,96.22
2022-12-23T04:21:26.659Z,93.45
2022-12-23T04:22:28.313Z,100.95
2022-12-23T04:23:30.035Z,94.90
2022-12-23T04:24:31.738Z,101.03
2022-12-23T04:25:33.487Z,91.93
2022-12-23T04:26:35.278Z,100.22
2022-12-23T04:27:37.312Z,99.88
2022-12-23T04:28:39.065Z,106.18
2022-12-23T04:29:40.847Z,101.68
2022-12-23T04:30:42.705Z,96.85
2022-12-23T04:31:44.506Z,101.32
2022-12-23T04:32:46.304Z,97.47
2022-12-23T04:33:48.036Z,100.67
2022-12-23T04:34:49.721Z,96.40
2022-12-23T04:35:51.444Z,106.60
2022-12-23T04:36:53.420Z,105.97
2022-12-23T04:37:55.275Z,100.50
2022-12-23T04:38:57.022Z,100.45
2022-12-23T04:39:58.670Z,97.18
2022-12-23T04:41:00.392Z,102.72
2022-12-23T04:42:02.105Z,106.85
2022-12-23T04:43:03.880Z,102.07
2022-12-23T04:44:06.117Z,90.57
2022-12-23T04:45:08.384Z,94.75
2022-12-23T04:46:10.152Z,97.18
2022-12-23T04:47:12.011Z,90.10
2022-12-23T04:48:13.722Z,98.22
2022-12-23T04:49:15.456Z,91.35
2022-12-23T04:50:17.269Z,100.07
2022-12-23T04:51:19.141Z,101.20
2022-12-23T04:52:20.898Z,88.55
2022-12-23T04:53:22.794Z,83.93
2022-12-23T04:54:24.537Z,88.23
2022-12-23T04:55:26.320Z,88.35
2022-12-23T04:56:28.084Z,93.57
2022-12-23T04:57:29.796Z,83.28
2022-12-23T04:58:31.471Z,77.07
2022-12-23T04:59:33.941Z,79.68
2022-12-23T05:00:39.550Z,86.43
2022-12-23T05:01:42.093Z,85.20
2022-12-23T05:02:44.206Z,90.78
2022-12-23T05:03:46.765Z,82.00
2022-12-23T05:04:48.590Z,84.97
2022-12-23T05:05:50.259Z,94.63
2022-12-23T05:06:52.018Z,90.88
2022-12-23T05:08:03.629Z,84.10
2022-12-23T05:09:06.113Z,86.97
2022-12-23T05:10:08.758Z,89.93
2022-12-23T05:11:10.486Z,83.32
2022-12-23T05:12:12.517Z,85.93
2022-12-23T05:13:14.238Z,83.97
2022-12-23T05:14:15.866Z,91.65
2022-12-23T05:15:17.619Z,86.40
2022-12-23T05:16:19.495Z,91.18
2022-12-23T05:17:21.354Z,89.38
2022-12-23T05:18:23.121Z,81.43
2022-12-23T05:19:24.806Z,83.63
2022-12-23T05:20:26.550Z,82.50
2022-12-23T05:21:28.222Z,92.80
2022-12-23T05:22:29.907Z,86.13
2022-12-23T05:23:31.630Z,82.95
2022-12-23T05:24:33.328Z,85.40
2022-12-23T05:25:38.737Z,84.67
2022-12-23T05:26:41.400Z,87.95
2022-12-23T05:27:45.551Z,84.28
2022-12-23T05:28:47.350Z,92.72
2022-12-23T05:29:48.967Z,80.68
2022-12-23T05:30:58.736Z,82.53
2022-12-23T05:32:00.427Z,87.22
2022-12-23T05:33:02.124Z,76.53
2022-12-23T05:34:06.679Z,86.45
2022-12-23T05:35:09.234Z,78.80
2022-12-23T05:36:12.280Z,77.93
2022-12-23T05:37:14.004Z,85.47
2022-12-23T05:38:15.667Z,82.30
2022-12-23T05:39:17.362Z,82.60
2022-12-23T05:40:23.551Z,83.20
2022-12-23T05:41:28.286Z,77.95
2022-12-23T05:42:29.944Z,91.47
2022-12-23T05:43:32.025Z,80.20
2022-12-23T05:44:33.784Z,87.43
2022-12-23T05:45:36.617Z,80.53
2022-12-23T05:46:38.466Z,92.20
2022-12-23T05:47:40.188Z,85.68
2022-12-23T05:48:42.659Z,85.07
2022-12-23T05:49:44.358Z,82.90
2022-12-23T05:50:48.801Z,85.25
2022-12-23T05:51:50.645Z,85.63
2022-12-23T05:52:55.462Z,86.78
2022-12-23T05:53:57.405Z,79.75
2022-12-23T05:54:59.282Z,80.80
2022-12-23T05:56:04.701Z,85.50
2022-12-23T05:57:06.555Z,80.60
2022-12-23T05:58:08.251Z,79.00
2022-12-23T05:59:09.948Z,77.80
2022-12-23T06:00:12.132Z,93.05
2022-12-23T06:01:13.889Z,84.95
2022-12-23T06:02:15.958Z,91.25
2022-12-23T06:03:17.962Z,95.28
2022-12-23T06:04:19.796Z,118.70
2022-12-23T06:05:22.235Z,126.55
2022-12-23T06:06:23.967Z,134.57
2022-12-23T06:07:25.721Z,152.60
2022-12-23T06:08:27.514Z,150.73
2022-12-23T06:09:29.260Z,134.57
2022-12-23T06:10:31.063Z,129.35
2022-12-23T06:11:32.815Z,103.28
2022-12-23T06:12:35.161Z,95.35
2022-12-23T06:13:36.942Z,91.43
2022-12-23T06:14:38.597Z,98.05
2022-12-23T06:15:40.255Z,91.90
2022-12-23T06:16:42.151Z,98.15
2022-12-23T06:17:44.132Z,96.53
2022-12-23T06:18:45.934Z,102.95
2022-12-23T06:19:47.625Z,101.22
2022-12-23T06:20:49.345Z,106.90
2022-12-23T06:21:51.071Z,92.57
2022-12-23T06:22:52.889Z,104.45
2022-12-23T06:23:54.657Z,102.60
2022-12-23T06:24:56.432Z,107.03
2022-12-23T06:25:59.819Z,110.47
2022-12-23T06:27:01.740Z,109.00
2022-12-23T06:28:03.497Z,110.73
2022-12-23T06:29:05.337Z,110.78
2022-12-23T06:30:08.163Z,119.13
2022-12-23T06:31:10.041Z,133.32
2022-12-23T06:32:12.993Z,152.82
2022-12-23T06:33:14.937Z,137.65
2022-12-23T06:34:16.731Z,143.73
2022-12-23T06:35:18.536Z,159.15
2022-12-23T06:36:20.428Z,162.00
2022-12-23T06:37:22.239Z,155.88
2022-12-23T06:38:24.088Z,159.67
2022-12-23T06:39:26.359Z,168.98
2022-12-23T06:40:28.116Z,162.43
2022-12-23T06:41:29.990Z,163.27
2022-12-23T06:42:31.662Z,158.98
2022-12-23T06:43:33.410Z,144.15
2022-12-23T06:44:35.134Z,158.57
2022-12-23T06:45:36.864Z,150.55
2022-12-23T06:46:38.715Z,144.30
2022-12-23T06:47:40.462Z,127.22
2022-12-23T06:48:42.134Z,131.70
2022-12-23T06:49:44.139Z,125.93
2022-12-23T06:50:46.063Z,123.00
2022-12-23T06:51:47.766Z,127.75
2022-12-23T06:52:49.471Z,127.00
2022-12-23T06:53:51.211Z,133.70
2022-12-23T06:54:53.024Z,124.22
2022-12-23T06:56:01.721Z,111.60
2022-12-23T06:57:03.575Z,119.95
2022-12-23T06:58:06.713Z,119.25
2022-12-23T06:59:08.452Z,124.33
2022-12-23T07:00:10.820Z,104.78
2022-12-23T07:01:12.857Z,109.82
2022-12-23T07:02:14.906Z,109.47
2022-12-23T07:03:16.978Z,95.45
2022-12-23T07:04:18.789Z,104.43
2022-12-23T07:05:20.840Z,104.97
2022-12-23T07:06:22.606Z,97.68
2022-12-23T07:07:24.365Z,122.55
2022-12-23T07:08:26.025Z,124.50
2022-12-23T07:09:27.847Z,171.87
2022-12-23T07:10:29.610Z,138.68
2022-12-23T07:11:31.368Z,144.05
2022-12-23T07:12:33.272Z,142.73
2022-12-23T07:13:35.557Z,118.82
2022-12-23T07:14:37.243Z,136.20
2022-12-23T07:15:39.867Z,103.47
2022-12-23T07:16:41.823Z,100.53
2022-12-23T07:17:43.658Z,100.88
2022-12-23T07:18:45.338Z,104.45
2022-12-23T07:19:47.173Z,107.97
2022-12-23T07:20:49.801Z,110.00
2022-12-23T07:21:51.496Z,114.40
2022-12-23T07:22:56.279Z,107.15
2022-12-23T07:23:58.061Z,116.38
2022-12-23T07:24:59.788Z,109.97
2022-12-23T07:26:01.632Z,111.60
2022-12-23T07:27:03.581Z,115.53
2022-12-23T07:28:05.418Z,112.45
2022-12-23T07:29:07.323Z,105.13
2022-12-23T07:30:09.624Z,98.40
2022-12-23T07:31:11.320Z,112.40
2022-12-23T07:32:13.331Z,104.88
2022-12-23T07:33:15.533Z,116.03
2022-12-23T07:34:17.386Z,106.63
2022-12-23T07:35:19.717Z,119.53
2022-12-23T07:36:21.502Z,115.75
2022-12-23T07:37:23.197Z,127.70
2022-12-23T07:38:24.927Z,117.60
2022-12-23T07:39:26.698Z,117.80
2022-12-23T07:40:28.355Z,118.47
2022-12-23T07:41:30.077Z,118.55
2022-12-23T07:42:47.367Z,118.80
2022-12-23T07:43:49.269Z,116.45
2022-12-23T07:44:51.043Z,134.40
2022-12-23T07:45:59.522Z,132.82
2022-12-23T07:47:01.917Z,126.63
2022-12-23T07:48:03.749Z,129.70
2022-12-23T07:49:05.777Z,115.43
2022-12-23T07:50:08.444Z,121.50
2022-12-23T07:51:10.175Z,113.13
2022-12-23T07:52:11.845Z,104.68
2022-12-23T07:53:13.617Z,107.32
2022-12-23T07:54:15.457Z,100.45
2022-12-23T07:55:17.111Z,96.85
2022-12-23T07:56:19.277Z,110.15
2022-12-23T07:57:20.952Z,92.13
2022-12-23T07:58:22.746Z,99.43
2022-12-23T07:59:27.603Z,94.55
2022-12-23T08:00:29.404Z,94.10
2022-12-23T08:01:31.229Z,94.97
2022-12-23T08:02:33.483Z,99.03
2022-12-23T08:03:35.750Z,107.35
2022-12-23T08:04:42.660Z,91.97
2022-12-23T08:05:47.669Z,84.65
2022-12-23T08:06:49.367Z,77.75
2022-12-23T08:07:52.051Z,91.18
2022-12-23T08:08:53.794Z,97.15
2022-12-23T08:09:55.578Z,88.88
2022-12-23T08:10:58.781Z,86.68
2022-12-23T08:12:00.549Z,88.67
2022-12-23T08:13:02.489Z,90.97
2022-12-23T08:14:04.240Z,94.95
2022-12-23T08:15:07.285Z,78.90
2022-12-23T08:16:10.283Z,87.68
2022-12-23T08:17:12.351Z,80.72
2022-12-23T08:18:14.072Z,76.72
2022-12-23T08:19:15.914Z,86.03
2022-12-23T08:20:17.615Z,85.97
2022-12-23T08:21:19.926Z,87.40
2022-12-23T08:22:21.847Z,91.87
2022-12-23T08:23:25.038Z,81.30
2022-12-23T08:24:27.129Z,82.53
2022-12-23T08:25:28.856Z,80.88
2022-12-23T08:26:30.507Z,79.88
2022-12-23T08:27:32.417Z,85.72
2022-12-23T08:28:35.879Z,88.65
2022-12-23T08:29:39.645Z,90.50
2022-12-23T08:30:41.502Z,87.95
2022-12-23T08:31:43.203Z,87.95
2022-12-23T08:32:45.088Z,93.33
2022-12-23T08:33:50.027Z,92.90
2022-12-23T08:34:51.779Z,108.45
2022-12-23T08:35:56.496Z,103.72
2022-12-23T08:36:58.221Z,97.78
2022-12-23T08:37:59.939Z,96.32
2022-12-23T08:39:05.004Z,93.05
2022-12-23T08:40:07.353Z,99.28
2022-12-23T08:41:14.402Z,96.93
2022-12-23T08:42:16.066Z,100.93
2022-12-23T08:43:17.753Z,107.13
2022-12-23T08:44:19.857Z,95.78
2022-12-23T08:45:21.632Z,100.47
2022-12-23T08:46:24.135Z,106.13
2022-12-23T08:47:25.888Z,100.95
2022-12-23T08:48:27.647Z,96.45
2022-12-23T08:49:29.389Z,101.30
2022-12-23T08:50:31.219Z,94.85
2022-12-23T08:51:33.619Z,93.63
2022-12-23T08:52:35.403Z,91.57
2022-12-23T08:53:39.587Z,83.53
2022-12-23T08:54:41.371Z,97.32
2022-12-23T08:55:48.793Z,94.65
2022-12-23T08:56:50.625Z,96.82
2022-12-23T08:57:52.417Z,90.20
2022-12-23T08:58:55.427Z,83.78
2022-12-23T08:59:57.157Z,81.60
2022-12-23T09:01:03.550Z,86.65
2022-12-23T09:02:06.000Z,76.78
2022-12-23T09:03:08.421Z,80.90
2022-12-23T09:04:10.228Z,79.57
2022-12-23T09:05:11.895Z,79.95
2022-12-23T09:06:24.710Z,103.60
2022-12-23T09:07:30.447Z,77.68
2022-12-23T09:08:32.285Z,76.15
2022-12-23T09:09:34.036Z,79.25
2022-12-23T09:10:41.870Z,78.53
2022-12-23T09:11:44.043Z,78.93
2022-12-23T09:12:45.791Z,85.57
2022-12-23T09:13:48.622Z,80.22
2022-12-23T09:14:50.503Z,80.67
2022-12-23T09:15:52.571Z,83.68
2022-12-23T09:16:54.361Z,83.68
2022-12-23T09:17:56.433Z,82.18
2022-12-23T09:18:58.087Z,83.50
2022-12-23T09:19:59.855Z,82.43
2022-12-23T09:21:07.575Z,75.93
2022-12-23T09:22:09.664Z,78.22
2022-12-23T09:23:11.467Z,88.78
2022-12-23T09:24:13.489Z,81.70
2022-12-23T09:25:15.462Z,82.77
2022-12-23T09:26:20.008Z,81.20
2022-12-23T09:27:21.745Z,86.90
2022-12-23T09:28:24.626Z,90.13
2022-12-23T09:29:26.372Z,76.13
2022-12-23T09:30:28.145Z,79.43
2022-12-23T09:31:36.210Z,80.57
2022-12-23T09:32:39.220Z,82.45
2022-12-23T09:33:41.068Z,79.38
2022-12-23T09:34:42.835Z,74.60
2022-12-23T09:35:45.787Z,70.30
2022-12-23T09:36:53.413Z,80.90
2022-12-23T09:37:56.991Z,75.90
2022-12-23T09:38:59.229Z,72.85
2022-12-23T09:40:01.197Z,76.97
2022-12-23T09:41:10.089Z,77.47
2022-12-23T09:42:53.020Z,78.32
2022-12-23T09:44:25.405Z,74.72
2022-12-23T09:46:22.161Z,80.15
2022-12-23T09:47:28.221Z,72.47
2022-12-23T09:48:36.094Z,74.20
2022-12-23T09:49:43.033Z,91.93
2022-12-23T09:50:45.337Z,74.68
2022-12-23T09:51:49.050Z,88.50
2022-12-23T09:53:11.829Z,89.85
2022-12-23T09:54:23.580Z,88.43
2022-12-23T09:55:46.833Z,79.85
2022-12-23T09:57:14.420Z,70.20
2022-12-23T09:58:28.937Z,93.18
2022-12-23T09:59:50.806Z,82.05
2022-12-23T10:01:06.111Z,76.33
2022-12-23T10:02:29.359Z,65.82
2022-12-23T10:03:50.364Z,71.15
2022-12-23T10:05:34.265Z,68.25
2022-12-23T10:06:38.689Z,64.53
2022-12-23T10:07:45.920Z,62.38
2022-12-23T10:08:51.877Z,72.13
2022-12-23T10:09:56.468Z,70.45
2022-12-23T10:11:10.880Z,73.15
2022-12-23T10:12:40.274Z,63.15
2022-12-23T10:14:02.562Z,65.17
2022-12-23T10:15:18.325Z,69.20
2022-12-23T10:16:26.485Z,64.22
2022-12-23T10:17:38.468Z,65.07
2022-12-23T10:18:50.543Z,67.13
2022-12-23T10:19:57.060Z,72.03
2022-12-23T10:21:12.019Z,72.97
2022-12-23T10:22:38.491Z,72.78
2022-12-23T10:23:44.171Z,71.38
2022-12-23T10:24:47.728Z,70.20
2022-12-23T10:25:51.671Z,74.40
2022-12-23T10:27:15.402Z,77.53
2022-12-23T10:28:17.335Z,73.25
2022-12-23T10:29:22.144Z,72.13
2022-12-23T10:30:54.032Z,78.55
2022-12-23T10:32:19.761Z,72.30
2022-12-23T10:33:25.381Z,71.20
2022-12-23T10:34:38.744Z,68.97
2022-12-23T10:36:05.371Z,66.43
2022-12-23T10:37:17.578Z,69.57
2022-12-23T10:38:31.586Z,80.60
2022-12-23T10:39:36.363Z,78.32
2022-12-23T10:40:54.942Z,68.97
2022-12-23T10:41:59.965Z,81.85
2022-12-23T10:43:20.816Z,69.10
2022-12-23T10:44:40.979Z,74.90
2022-12-23T10:46:01.479Z,69.60
2022-12-23T10:47:03.798Z,71.82
2022-12-23T10:48:27.754Z,76.47
2022-12-23T10:49:44.448Z,69.80
2022-12-23T10:51:10.212Z,75.63
2022-12-23T10:52:18.975Z,67.15
2022-12-23T10:53:41.146Z,75.03
2022-12-23T10:54:46.386Z,72.05
2022-12-23T10:55:50.343Z,77.57
2022-12-23T10:56:54.271Z,68.15
2022-12-23T10:58:25.593Z,68.70
2022-12-23T10:59:36.633Z,74.72
2022-12-23T11:00:52.234Z,67.20
2022-12-23T11:02:29.493Z,70.85
2022-12-23T11:03:51.903Z,77.30
2022-12-23T11:04:54.531Z,84.60
2022-12-23T11:05:57.688Z,105.40
2022-12-23T11:07:26.188Z,67.80
2022-12-23T11:08:23.093Z,71.15
2022-12-23T11:09:28.402Z,73.97
2022-12-23T11:10:33.098Z,67.80
2022-12-23T11:12:03.550Z,68.45
2022-12-23T11:13:05.507Z,65.82
2022-12-23T11:14:30.124Z,68.13
2022-12-23T11:15:40.433Z,61.60
2022-12-23T11:16:46.163Z,64.88
2022-12-23T11:18:15.987Z,57.00
2022-12-23T11:19:17.746Z,62.78
2022-12-23T11:20:19.827Z,64.55
2022-12-23T11:21:21.803Z,63.67
2022-12-23T11:22:25.594Z,69.88
2022-12-23T11:23:36.496Z,68.85
2022-12-23T11:24:43.162Z,64.82
2022-12-23T11:25:46.282Z,67.40
2022-12-23T11:26:58.535Z,254.30
2022-12-23T11:28:12.327Z,106.13
2022-12-23T11:29:40.317Z,67.38
2022-12-23T11:30:57.342Z,64.53
2022-12-23T11:32:00.386Z,62.85
2022-12-23T11:33:02.357Z,67.07
2022-12-23T11:34:37.789Z,61.47
2022-12-23T11:35:39.739Z,59.33
2022-12-23T11:36:41.835Z,60.75
2022-12-23T11:37:43.976Z,61.72
2022-12-23T11:38:51.807Z,62.87
2022-12-23T11:39:53.747Z,61.08
2022-12-23T11:40:55.964Z,62.60
2022-12-23T11:42:20.466Z,65.18
2022-12-23T11:43:24.546Z,68.10
2022-12-23T11:44:41.750Z,66.97
2022-12-23T11:45:43.690Z,69.72
2022-12-23T11:46:45.826Z,71.30
2022-12-23T11:47:47.839Z,69.32
2022-12-23T11:48:54.626Z,71.38
2022-12-23T11:50:02.441Z,67.83
2022-12-23T11:51:04.655Z,63.58
2022-12-23T11:52:06.624Z,66.68
2022-12-23T11:53:22.059Z,67.22
2022-12-23T11:54:23.891Z,60.22
2022-12-23T11:55:28.023Z,57.92
2022-12-23T11:56:40.503Z,62.00
2022-12-23T11:57:46.760Z,58.88
2022-12-23T11:58:53.862Z,58.40
2022-12-23T11:59:59.987Z,57.97
2022-12-23T12:01:08.689Z,59.37
2022-12-23T12:02:18.447Z,55.78
2022-12-23T12:03:25.007Z,60.05
2022-12-23T12:04:31.788Z,56.40
2022-12-23T12:05:38.123Z,62.40
2022-12-23T12:06:49.801Z,62.00
2022-12-23T12:08:01.130Z,58.88
2022-12-23T12:09:05.910Z,57.05
2022-12-23T12:10:18.017Z,59.95
2022-12-23T12:11:39.924Z,59.67
2022-12-23T12:12:41.709Z,60.83
2022-12-23T12:13:48.004Z,64.75
2022-12-23T12:14:52.896Z,70.22
2022-12-23T12:16:31.594Z,69.63
2022-12-23T12:17:41.152Z,69.63
2022-12-23T12:18:47.118Z,74.30
2022-12-23T12:20:16.738Z,73.22
2022-12-23T12:21:24.493Z,73.68
2022-12-23T12:22:36.438Z,79.95
2022-12-23T12:23:41.180Z,70.07
2022-12-23T12:24:53.213Z,72.17
2022-12-23T12:26:01.905Z,77.82
2022-12-23T12:27:08.390Z,76.03
2022-12-23T12:28:30.296Z,73.68
2022-12-23T12:30:08.063Z,73.47
2022-12-23T12:31:17.539Z,68.85
2022-12-23T12:32:29.448Z,75.38
2022-12-23T12:33:36.713Z,64.05
2022-12-23T12:34:58.007Z,66.70
2022-12-23T12:36:07.095Z,69.15
2022-12-23T12:37:34.196Z,77.20
2022-12-23T12:38:39.254Z,71.45
2022-12-23T12:39:49.472Z,71.75
2022-12-23T12:41:16.296Z,74.25
2022-12-23T12:42:35.350Z,77.57
2022-12-23T12:44:03.925Z,76.13
2022-12-23T12:45:16.948Z,72.72
2022-12-23T12:46:18.812Z,72.00
2022-12-23T12:47:56.629Z,65.75
2022-12-23T12:49:15.361Z,67.60
2022-12-23T12:50:30.993Z,81.47
2022-12-23T12:51:48.561Z,78.43
2022-12-23T12:52:54.071Z,73.63
2022-12-23T12:54:05.898Z,64.80
2022-12-23T12:55:11.047Z,58.53
2022-12-23T12:56:24.741Z,71.30
2022-12-23T12:57:26.886Z,69.15
2022-12-23T12:58:28.712Z,72.35
2022-12-23T12:59:36.232Z,66.22
2022-12-23T13:01:07.232Z,60.17
2022-12-23T13:02:49.660Z,60.13
2022-12-23T13:04:21.832Z,56.17
2022-12-23T13:05:49.962Z,55.70
2022-12-23T13:06:55.200Z,52.50
2022-12-23T13:08:25.069Z,55.95
2022-12-23T13:09:56.709Z,52.83
2022-12-23T13:11:28.769Z,48.05
2022-12-23T13:12:56.948Z,26.33
2022-12-23T13:14:29.902Z,35.55
2022-12-23T13:16:22.556Z,13.65
2022-12-23T13:18:00.346Z,13.60
2022-12-23T13:19:25.777Z,15.85
2022-12-23T13:21:01.755Z,15.13
2022-12-23T13:22:09.774Z,15.05
2022-12-23T13:23:48.910Z,15.80
2022-12-23T13:25:05.832Z,13.57
2022-12-23T13:26:23.771Z,12.15
2022-12-23T13:27:52.255Z,12.20
2022-12-23T13:29:02.337Z,14.55
2022-12-23T13:30:12.230Z,11.63
2022-12-23T13:31:26.553Z,20.77
2022-12-23T13:32:46.442Z,14.85
2022-12-23T13:34:32.250Z,13.77
2022-12-23T13:36:13.397Z,15.48
2022-12-23T13:37:45.948Z,16.13
2022-12-23T13:39:09.336Z,81.95
2022-12-23T13:40:26.332Z,40.55
2022-12-23T13:41:39.924Z,56.88
2022-12-23T13:42:48.442Z,74.43
2022-12-23T13:44:02.032Z,90.97
2022-12-23T13:45:06.562Z,64.97
2022-12-23T13:46:30.407Z,104.18
2022-12-23T13:48:05.087Z,68.88
2022-12-23T13:49:46.133Z,61.10
2022-12-23T13:50:58.503Z,57.08
2022-12-23T13:52:14.558Z,56.60
2022-12-23T13:53:28.169Z,60.28
2022-12-23T13:54:46.897Z,60.92
2022-12-23T13:56:14.416Z,52.47
2022-12-23T13:57:28.705Z,61.10
2022-12-23T13:58:31.993Z,57.13
2022-12-23T13:59:42.700Z,54.25
2022-12-23T14:00:45.042Z,55.63
2022-12-23T14:01:49.166Z,54.83
2022-12-23T14:02:53.497Z,57.55
2022-12-23T14:03:55.364Z,54.70
2022-12-23T14:04:59.372Z,60.22
2022-12-23T14:06:26.092Z,57.22
2022-12-23T14:07:30.844Z,54.97
2022-12-23T14:08:43.034Z,59.22
2022-12-23T14:09:57.841Z,55.60
2022-12-23T14:11:31.574Z,56.38
2022-12-23T14:12:38.194Z,58.58
2022-12-23T14:13:51.705Z,57.30
2022-12-23T14:15:39.026Z,59.45
2022-12-23T14:17:02.244Z,62.15
2022-12-23T14:18:16.139Z,118.93
2022-12-23T14:19:55.814Z,68.25
2022-12-23T14:21:20.581Z,58.50
2022-12-23T14:22:45.628Z,63.75
2022-12-23T14:24:24.820Z,54.70
2022-12-23T14:25:54.134Z,70.03
2022-12-23T14:26:58.404Z,73.32
2022-12-23T14:28:13.307Z,62.30
2022-12-23T14:29:48.476Z,61.03
2022-12-23T14:30:50.380Z,58.25
2022-12-23T14:31:57.551Z,62.28
2022-12-23T14:33:02.803Z,88.78